createdAt,value
2018-06-27T00:02:10.200Z,4.53
2018-06-27T00:04:40.088Z,4.10
2018-06-27T00:07:10.235Z,4.40
2018-06-27T00:09:39.886Z,4.23
2018-06-27T00:12:10.238Z,3.90
2018-06-27T00:14:40.149Z,4.43
2018-06-27T00:17:10.860Z,4.33
2018-06-27T00:19:40.895Z,5.43
2018-06-27T00:22:11.311Z,4.20
2018-06-27T00:24:41.072Z,4.17
2018-06-27T00:27:11.476Z,7.83
2018-06-27T00:29:41.925Z,4.33
2018-06-27T00:32:11.783Z,4.80
2018-06-27T00:34:42.645Z,4.73
2018-06-27T00:37:13.175Z,6.00
2018-06-27T00:39:43.523Z,4.73
2018-06-27T00:42:15.128Z,4.53
2018-06-27T00:44:45.926Z,9.10
2018-06-27T00:47:16.345Z,4.67
2018-06-27T00:49:46.470Z,4.37
2018-06-27T00:52:16.372Z,4.33
2018-06-27T00:54:46.754Z,4.70
2018-06-27T00:57:16.876Z,4.53
2018-06-27T00:59:46.972Z,4.73
2018-06-27T01:02:17.100Z,4.80
2018-06-27T01:04:47.629Z,6.10
2018-06-27T01:07:18.720Z,5.47
2018-06-27T01:09:48.684Z,7.80
2018-06-27T01:12:19.626Z,6.10
2018-06-27T01:14:49.804Z,8.30
2018-06-27T01:17:19.970Z,7.70
2018-06-27T01:19:52.056Z,5.60
2018-06-27T01:22:23.730Z,9.23
2018-06-27T01:24:56.975Z,18.50
2018-06-27T01:27:28.464Z,5.20
2018-06-27T01:29:58.316Z,6.03
2018-06-27T01:32:31.362Z,6.20
2018-06-27T01:35:03.495Z,7.00
2018-06-27T01:37:34.000Z,5.67
2018-06-27T01:40:04.967Z,6.10
2018-06-27T01:42:36.451Z,5.80
2018-06-27T01:45:11.912Z,5.67
2018-06-27T01:47:42.831Z,6.30
2018-06-27T01:50:13.085Z,7.87
2018-06-27T01:52:42.896Z,8.53
2018-06-27T01:55:13.249Z,5.77
2018-06-27T01:57:43.333Z,6.17
2018-06-27T02:00:15.320Z,6.63
2018-06-27T02:02:46.099Z,9.10
2018-06-27T02:05:16.745Z,6.00
2018-06-27T02:07:47.136Z,5.93
2018-06-27T02:10:17.219Z,7.23
2018-06-27T02:12:47.265Z,6.63
2018-06-27T02:15:17.255Z,11.30
2018-06-27T02:17:47.903Z,7.67
2018-06-27T02:20:18.844Z,6.40
2018-06-27T02:22:50.667Z,8.67
2018-06-27T02:25:21.669Z,10.73
2018-06-27T02:27:52.276Z,8.47
2018-06-27T02:30:23.011Z,10.60
2018-06-27T02:32:53.791Z,8.57
2018-06-27T02:35:23.956Z,9.07
2018-06-27T02:37:54.801Z,7.33
2018-06-27T02:40:25.588Z,7.33
2018-06-27T02:42:55.972Z,5.70
2018-06-27T02:45:26.147Z,9.23
2018-06-27T02:47:56.283Z,11.07
2018-06-27T02:50:26.515Z,8.00
2018-06-27T02:52:56.539Z,6.23
2018-06-27T02:55:26.469Z,9.20
2018-06-27T02:57:57.044Z,8.20
2018-06-27T03:00:27.589Z,9.50
2018-06-27T03:02:57.971Z,9.13
2018-06-27T03:05:27.839Z,9.80
2018-06-27T03:07:58.032Z,12.10
2018-06-27T03:10:28.464Z,9.13
2018-06-27T03:12:58.950Z,7.63
2018-06-27T03:15:29.054Z,7.37
2018-06-27T03:17:59.767Z,8.50
2018-06-27T03:20:30.312Z,13.33
2018-06-27T03:23:00.371Z,7.90
2018-06-27T03:25:31.319Z,7.57
2018-06-27T03:28:01.449Z,9.57
2018-06-27T03:30:31.815Z,11.87
2018-06-27T03:33:01.719Z,9.43
2018-06-27T03:35:32.630Z,8.97
2018-06-27T03:38:02.335Z,15.90
2018-06-27T03:40:32.442Z,7.53
2018-06-27T03:43:03.640Z,10.47
2018-06-27T03:45:33.325Z,7.97
2018-06-27T03:48:03.416Z,7.37
2018-06-27T03:50:35.527Z,7.17
2018-06-27T03:53:06.006Z,9.43
2018-06-27T03:55:35.980Z,6.00
2018-06-27T03:58:06.005Z,8.83
2018-06-27T04:00:36.321Z,11.33
2018-06-27T04:03:07.752Z,6.60
2018-06-27T04:05:37.952Z,7.10
2018-06-27T04:08:08.332Z,8.97
2018-06-27T04:10:39.067Z,8.80
2018-06-27T04:13:09.280Z,13.13
2018-06-27T04:15:39.667Z,8.53
2018-06-27T04:18:10.256Z,12.67
2018-06-27T04:20:40.543Z,8.37
2018-06-27T04:23:10.343Z,6.97
2018-06-27T04:25:40.608Z,7.20
2018-06-27T04:28:11.447Z,13.00
2018-06-27T04:30:41.698Z,10.50
2018-06-27T04:33:11.868Z,8.70
2018-06-27T04:35:42.089Z,7.17
2018-06-27T04:38:13.480Z,11.07
2018-06-27T04:40:43.583Z,7.73
2018-06-27T04:43:13.745Z,7.63
2018-06-27T04:45:44.119Z,9.67
2018-06-27T04:48:14.074Z,11.83
2018-06-27T04:50:43.721Z,11.00
2018-06-27T04:53:14.260Z,10.30
2018-06-27T04:55:44.336Z,7.93
2018-06-27T04:58:15.300Z,7.17
2018-06-27T05:00:45.561Z,7.80
2018-06-27T05:03:15.959Z,9.50
2018-06-27T05:05:45.894Z,7.53
2018-06-27T05:08:16.472Z,17.43
2018-06-27T05:10:46.151Z,10.90
2018-06-27T05:13:16.758Z,7.63
2018-06-27T05:15:46.696Z,9.73
2018-06-27T05:18:16.747Z,12.13
2018-06-27T05:20:46.504Z,10.13
2018-06-27T05:23:17.148Z,12.73
2018-06-27T05:25:46.757Z,8.80
2018-06-27T05:28:16.432Z,14.30
2018-06-27T05:30:46.411Z,8.53
2018-06-27T05:33:16.420Z,8.70
2018-06-27T05:35:46.276Z,6.30
2018-06-27T05:38:16.737Z,5.37
2018-06-27T05:40:46.595Z,7.17
2018-06-27T05:43:16.146Z,9.67
2018-06-27T05:45:46.717Z,7.67
2018-06-27T05:48:18.157Z,8.63
2018-06-27T05:50:48.315Z,6.90
2018-06-27T05:53:18.835Z,7.77
2018-06-27T05:55:48.780Z,5.10
2018-06-27T05:58:18.717Z,6.67
2018-06-27T06:00:48.720Z,5.43
2018-06-27T06:03:18.607Z,4.13
2018-06-27T06:05:48.317Z,3.77
2018-06-27T06:08:18.557Z,8.40
2018-06-27T06:10:48.830Z,3.43
2018-06-27T06:13:19.183Z,4.80
2018-06-27T06:15:49.169Z,7.20
2018-06-27T06:18:19.001Z,4.07
2018-06-27T06:20:48.750Z,4.23
2018-06-27T06:23:18.904Z,4.03
2018-06-27T06:25:48.547Z,4.83
2018-06-27T06:28:18.254Z,5.70
2018-06-27T06:30:48.262Z,5.80
2018-06-27T06:33:18.326Z,4.00
2018-06-27T06:35:49.112Z,9.10
2018-06-27T06:38:19.928Z,5.70
2018-06-27T06:40:49.679Z,4.10
2018-06-27T06:43:20.228Z,5.53
2018-06-27T06:45:50.171Z,3.93
2018-06-27T06:48:19.797Z,4.43
2018-06-27T06:50:49.488Z,3.90
2018-06-27T06:53:19.432Z,3.50
2018-06-27T06:55:49.450Z,3.60
2018-06-27T06:58:19.708Z,3.03
2018-06-27T07:00:49.666Z,2.40
2018-06-27T07:03:21.300Z,2.87
2018-06-27T07:05:51.292Z,2.27
2018-06-27T07:08:22.005Z,3.83
2018-06-27T07:10:52.201Z,3.00
2018-06-27T07:13:23.033Z,4.40
2018-06-27T07:15:53.283Z,2.70
2018-06-27T07:18:23.315Z,2.00
2018-06-27T07:20:53.331Z,3.23
2018-06-27T07:23:23.339Z,2.37
2018-06-27T07:25:53.406Z,3.67
2018-06-27T07:28:23.556Z,2.23
2018-06-27T07:30:53.543Z,2.13
2018-06-27T07:33:24.162Z,2.93
2018-06-27T07:35:53.826Z,3.20
2018-06-27T07:38:23.661Z,1.87
2018-06-27T07:40:53.577Z,2.23
2018-06-27T07:43:23.242Z,2.70
2018-06-27T07:45:52.834Z,8.97
2018-06-27T07:48:23.401Z,4.83
2018-06-27T07:50:53.751Z,2.87
2018-06-27T07:53:23.332Z,1.90
2018-06-27T07:55:53.648Z,2.00
2018-06-27T07:58:23.922Z,2.03
2018-06-27T08:00:54.139Z,2.00
2018-06-27T08:03:24.629Z,3.13
2018-06-27T08:05:54.508Z,2.87
2018-06-27T08:08:24.764Z,2.63
2018-06-27T08:11:06.710Z,2.07
2018-06-27T08:13:36.804Z,2.60
2018-06-27T08:16:06.661Z,2.53
2018-06-27T08:18:42.759Z,3.50
2018-06-27T08:21:12.657Z,4.77
2018-06-27T08:23:42.719Z,2.20
2018-06-27T08:26:12.798Z,3.23
2018-06-27T08:28:42.555Z,3.90
2018-06-27T08:31:13.424Z,4.47
2018-06-27T08:33:43.390Z,3.43
2018-06-27T08:36:12.976Z,2.60
2018-06-27T08:38:42.896Z,2.73
2018-06-27T08:41:12.586Z,3.13
2018-06-27T08:43:43.242Z,3.03
2018-06-27T08:46:13.528Z,2.17
2018-06-27T08:48:43.920Z,2.30
2018-06-27T08:51:13.629Z,2.50
2018-06-27T08:53:44.387Z,2.30
2018-06-27T08:56:14.049Z,4.17
2018-06-27T08:58:43.759Z,2.30
2018-06-27T09:01:14.382Z,2.10
2018-06-27T09:03:44.140Z,2.73
2018-06-27T09:06:13.806Z,2.83
2018-06-27T09:08:44.564Z,2.30
2018-06-27T09:11:14.228Z,2.00
2018-06-27T09:13:43.924Z,2.10
2018-06-27T09:16:14.117Z,3.33
2018-06-27T09:18:43.857Z,2.50
2018-06-27T09:21:13.724Z,3.13
